Chicago, Illinois
Traffic Map
Current Weather Conditions
Chicago, Illinois
Broken Clouds
Broken Clouds
73°
Feels Like: 73°
Wind Chill: 73° Ceiling: 25000
Heat Index: 73° Visibility: 10mi
Dew Point: 65° Wind: 8mph
Humidity: 76% Direction: 190° (S)
Pressure: 30.08in Gusts: 0mph
Raw Report DataKMDW 051153Z 19007KT 10SM SCT060 BKN250 23/18 A3008 RMK AO2 SLP176 T02280183 10239 20228 51007
Traffic Incident Summary
Active as of:
Severity:
Category:
InformationThere was an issue retrieving the traffic information for this location. Please try a different location or try again shortly.
Advertisements
Track Severe Weather on mobile